Jamestown, OH

1:25 PM EST on December 27, 2014 (GMT -0500)
APRSWXNET Jamestown OH US | Change Station
CLOSE
Current Station
Personal Weather Station
Location: Bowersville, OH
Elevation: 1187 ft
Nearby Weather Stations

Elev 1187 ft 39.60 °N, 83.70 °W | Updated 20 minutes ago

Overcast
Overcast
50 °F
Feels Like 46 °F
N
10
Wind Variable Wind from SSW
Gusts 19.0 mph

Today
High -- | Low -- °F
--% Chance of Precip.
Yesterday
High -- | Low -- °F
Precip. -- in
7:54 AM 5:17 PM
Waxing Crescent, 39% visible
Pressure 30.15 in
Visibility 10.0 miles
Clouds Overcast 3400 ft
Windchill 46 °F
Dew Point 43 °F
Humidity 77%
Rainfall -999.00 in
Snow Depth Not available.
UV 1 out of 12
Pollen .10 out of 12
Air Quality Not available.
Flu Activity Not available.
METAR KILN 271754Z AUTO 20013KT 10SM OVC034 11/03 A3011 RMK AO2 SLP209 60000 T01060033 10111 20044 58028

More Conditions Fewer Conditions

Pressure 30.15 in
Visibility 10.0 miles
Clouds Overcast 3400 ft
Windchill 46 °F
Dew Point 43 °F
Humidity 77%
Rainfall -999.00 in
Snow Depth Not available.
UV 1 out of 12
Pollen .10 out of 12
Air Quality Not available.
Flu Activity Not available.
METAR KILN 271754Z AUTO 20013KT 10SM OVC034 11/03 A3011 RMK AO2 SLP209 60000 T01060033 10111 20044 58028

More Conditions Fewer Conditions

10-Day Weather Forecast

Almanac

Astronomy

Dec. 27, 2014 Rise Set
Actual Time
Civil Twilight
Nautical Twilight
Astronomical Twilight
Moon
Length of Visible Light
Length of Day
Tomorrow will be .
, % of the Moon is Illuminated

Today's Extremes

State Highs State Lows

Community

WunderPhotos

Upload Photos

1,780,982 photos uploaded!

WunderBlogs® & News

Nearby

Air Quality

  Air Quality AQ Index Pollutant
Not available.

Snow Depth

Station Depth Elevation

Earthquake Activity

City Distance Mag. Time & Date
Minimum magnitude displayed is 2.5.

Coastal Water Temperatures

Place Temperature

Nearby Weather Stations